Terminal Aerodrome Forecast
Issued by NWS Indianapolis, IN

Home | Current Version | Previous Version | Text Only | Print | Product List | Glossary On
Versions: 1 2 3 4 5 6 7 8 9 10 11 12 13 14 15 16 17 18 19 20 21 22 23 24 25 26 27 28
000
FTUS43 KIND 071120
TAFIND
TAF
KIND 071120Z 0712/0818 27008KT P6SM BKN200
     FM080200 27007KT P6SM OVC110
     FM080600 28008KT P6SM BKN080
     FM081200 28008KT P6SM SCT050
     FM081500 28010G19KT P6SM SCT060=

USA.gov is the U.S. government's official web portal to all federal, state and local government web resources and services.